createdAt,value
2023-02-27T00:00:34.802Z,-0.78
2023-02-27T00:01:16.418Z,-0.82
2023-02-27T00:01:58.112Z,-0.59
2023-02-27T00:02:39.766Z,-0.98
2023-02-27T00:03:21.458Z,-0.95
2023-02-27T00:04:03.241Z,-0.62
2023-02-27T00:04:45.278Z,-0.68
2023-02-27T00:05:26.975Z,-0.59
2023-02-27T00:06:08.700Z,-0.63
2023-02-27T00:06:50.336Z,-0.59
2023-02-27T00:07:31.997Z,-0.67
2023-02-27T00:08:13.722Z,-0.54
2023-02-27T00:08:55.324Z,-0.54
2023-02-27T00:09:38.055Z,-0.78
2023-02-27T00:10:19.813Z,-0.64
2023-02-27T00:11:01.568Z,-0.54
2023-02-27T00:11:43.364Z,-0.55
2023-02-27T00:12:25.038Z,-0.59
2023-02-27T00:13:07.125Z,-0.96
2023-02-27T00:13:49.190Z,-0.74
2023-02-27T00:14:30.760Z,-0.59
2023-02-27T00:15:18.458Z,-0.75
2023-02-27T00:16:00.074Z,-0.63
2023-02-27T00:16:41.821Z,-0.59
2023-02-27T00:17:25.861Z,-0.70
2023-02-27T00:18:08.205Z,-0.69
2023-02-27T00:18:49.855Z,-0.62
2023-02-27T00:19:31.526Z,-0.63
2023-02-27T00:20:15.865Z,-0.60
2023-02-27T00:20:57.476Z,-0.59
2023-02-27T00:21:40.262Z,-0.65
2023-02-27T00:22:21.802Z,-0.62
2023-02-27T00:23:07.380Z,-0.63
2023-02-27T00:23:49.098Z,-0.61
2023-02-27T00:24:30.674Z,-0.57
2023-02-27T00:25:13.171Z,-0.56
2023-02-27T00:25:55.654Z,-0.76
2023-02-27T00:26:37.940Z,-1.03
2023-02-27T00:27:19.547Z,-0.52
2023-02-27T00:28:01.375Z,-0.61
2023-02-27T00:28:43.024Z,-0.56
2023-02-27T00:29:24.736Z,-0.60
2023-02-27T00:30:09.561Z,-0.58
2023-02-27T00:30:51.273Z,-0.63
2023-02-27T00:31:33.126Z,-0.82
2023-02-27T00:32:15.545Z,-0.62
2023-02-27T00:32:57.223Z,-0.71
2023-02-27T00:33:38.873Z,-0.65
2023-02-27T00:34:23.467Z,-0.66
2023-02-27T00:35:10.128Z,-0.68
2023-02-27T00:35:56.194Z,-0.81
2023-02-27T00:36:37.845Z,-0.74
2023-02-27T00:37:19.460Z,-0.69
2023-02-27T00:38:02.384Z,-0.78
2023-02-27T00:38:44.001Z,-0.68
2023-02-27T00:39:25.703Z,-0.66
2023-02-27T00:40:08.111Z,-1.15
2023-02-27T00:40:49.792Z,-1.08
2023-02-27T00:41:31.752Z,-0.74
2023-02-27T00:42:13.461Z,-1.15
2023-02-27T00:42:55.329Z,-0.62
2023-02-27T00:43:36.949Z,-0.78
2023-02-27T00:44:18.673Z,-0.74
2023-02-27T00:45:00.891Z,-0.73
2023-02-27T00:45:42.598Z,-0.64
2023-02-27T00:46:24.335Z,-0.66
2023-02-27T00:47:06.467Z,-0.67
2023-02-27T00:47:48.148Z,-1.13
2023-02-27T00:48:30.248Z,-0.84
2023-02-27T00:49:11.926Z,-0.69
2023-02-27T00:49:53.518Z,-0.79
2023-02-27T00:50:35.235Z,-0.68
2023-02-27T00:51:16.863Z,-0.66
2023-02-27T00:51:58.534Z,-0.67
2023-02-27T00:52:40.650Z,-0.84
2023-02-27T00:53:23.103Z,-0.89
2023-02-27T00:54:04.771Z,-0.73
2023-02-27T00:54:46.388Z,-0.83
2023-02-27T00:55:27.974Z,-0.68
2023-02-27T00:56:09.572Z,-0.75
2023-02-27T00:56:51.155Z,-0.65
2023-02-27T00:57:33.232Z,-0.63
2023-02-27T00:58:15.000Z,-0.63
2023-02-27T00:58:56.641Z,-0.94
2023-02-27T00:59:38.282Z,-0.63
2023-02-27T01:00:20.271Z,-0.63
2023-02-27T01:01:01.940Z,-1.66
2023-02-27T01:01:44.496Z,-0.81
2023-02-27T01:02:26.480Z,-0.80
2023-02-27T01:03:10.695Z,-0.77
2023-02-27T01:03:52.363Z,-0.70
2023-02-27T01:04:33.955Z,-0.77
2023-02-27T01:05:15.589Z,-0.71
2023-02-27T01:05:58.148Z,-0.71
2023-02-27T01:06:40.184Z,-0.75
2023-02-27T01:07:21.871Z,-0.70
2023-02-27T01:08:03.783Z,-0.69
2023-02-27T01:08:45.446Z,-0.70
2023-02-27T01:09:27.121Z,-0.70
2023-02-27T01:10:10.725Z,-0.74
2023-02-27T01:10:57.043Z,-0.75
2023-02-27T01:11:38.730Z,-0.91
2023-02-27T01:12:20.430Z,-0.90
2023-02-27T01:13:02.202Z,-0.77
2023-02-27T01:13:46.128Z,-0.87
2023-02-27T01:14:28.099Z,-0.70
2023-02-27T01:15:11.384Z,-0.69
2023-02-27T01:15:52.995Z,-0.80
2023-02-27T01:16:34.699Z,-0.77
2023-02-27T01:17:16.351Z,-0.73
2023-02-27T01:17:58.066Z,-0.82
2023-02-27T01:18:40.594Z,-0.77
2023-02-27T01:19:22.221Z,-0.75
2023-02-27T01:20:05.049Z,-0.76
2023-02-27T01:20:46.679Z,-0.85
2023-02-27T01:21:28.726Z,-0.87
2023-02-27T01:22:10.584Z,-0.84
2023-02-27T01:22:52.235Z,-0.83
2023-02-27T01:23:34.009Z,-0.87
2023-02-27T01:24:15.642Z,-0.89
2023-02-27T01:24:57.248Z,-0.84
2023-02-27T01:25:38.970Z,-0.81
2023-02-27T01:26:20.835Z,-0.76
2023-02-27T01:27:02.542Z,-0.76
2023-02-27T01:27:44.208Z,-0.78
2023-02-27T01:28:25.910Z,-0.81
2023-02-27T01:29:07.740Z,-0.93
2023-02-27T01:29:49.412Z,-0.88
2023-02-27T01:30:31.088Z,-0.95
2023-02-27T01:31:13.161Z,-0.89
2023-02-27T01:31:54.916Z,-0.88
2023-02-27T01:32:36.735Z,-0.89
2023-02-27T01:33:18.897Z,-1.04
2023-02-27T01:34:00.662Z,-1.23
2023-02-27T01:34:42.522Z,-0.90
2023-02-27T01:35:24.153Z,-1.02
2023-02-27T01:36:06.198Z,-1.01
2023-02-27T01:36:47.765Z,-0.99
2023-02-27T01:37:30.945Z,-1.21
2023-02-27T01:38:12.668Z,-1.39
2023-02-27T01:38:55.564Z,-0.83
2023-02-27T01:39:37.204Z,-0.99
2023-02-27T01:40:20.956Z,-0.92
2023-02-27T01:41:04.391Z,-1.06
2023-02-27T01:41:47.643Z,-0.82
2023-02-27T01:42:29.296Z,-1.28
2023-02-27T01:43:16.825Z,-0.88
2023-02-27T01:44:12.832Z,-1.34
2023-02-27T01:45:12.478Z,-0.87
2023-02-27T01:45:54.974Z,-1.02
2023-02-27T01:46:36.783Z,-0.97
2023-02-27T01:47:18.467Z,-0.85
2023-02-27T01:48:05.127Z,-0.86
2023-02-27T01:48:48.389Z,-0.87
2023-02-27T01:49:33.625Z,-0.92
2023-02-27T01:50:17.244Z,-0.89
2023-02-27T01:51:01.754Z,-0.88
2023-02-27T01:51:47.800Z,-1.16
2023-02-27T01:52:31.393Z,-0.98
2023-02-27T01:53:13.691Z,-1.00
2023-02-27T01:53:56.313Z,-0.98
2023-02-27T01:54:40.391Z,-0.90
2023-02-27T01:55:23.317Z,-1.00
2023-02-27T01:56:10.356Z,-0.88
2023-02-27T01:56:52.455Z,-0.90
2023-02-27T01:57:35.885Z,-0.90
2023-02-27T01:58:17.750Z,-0.89
2023-02-27T01:59:03.878Z,-0.97
2023-02-27T01:59:45.569Z,-0.93
2023-02-27T02:00:27.246Z,-0.95
2023-02-27T02:01:08.960Z,-0.92
2023-02-27T02:01:51.590Z,-0.94
2023-02-27T02:02:47.500Z,-0.89
2023-02-27T02:03:47.788Z,-0.89
2023-02-27T02:04:33.216Z,-1.06
2023-02-27T02:05:15.025Z,-0.95
2023-02-27T02:05:59.462Z,-1.25
2023-02-27T02:06:46.916Z,-1.02
2023-02-27T02:07:29.578Z,-0.98
2023-02-27T02:08:20.076Z,-1.05
2023-02-27T02:09:03.012Z,-1.04
2023-02-27T02:09:48.931Z,-1.12
2023-02-27T02:10:32.137Z,-0.92
2023-02-27T02:11:16.129Z,-0.99
2023-02-27T02:12:00.754Z,-1.13
2023-02-27T02:12:43.687Z,-1.12
2023-02-27T02:13:25.627Z,-0.98
2023-02-27T02:14:10.767Z,-0.97
2023-02-27T02:14:54.548Z,-1.11
2023-02-27T02:15:41.832Z,-1.01
2023-02-27T02:16:35.295Z,-1.02
2023-02-27T02:17:45.508Z,-1.05
2023-02-27T02:18:50.376Z,-1.06
2023-02-27T02:19:50.534Z,-1.49
2023-02-27T02:20:50.807Z,-1.05
2023-02-27T02:22:07.901Z,-1.32
2023-02-27T02:23:04.425Z,-0.98
2023-02-27T02:24:07.523Z,-0.97
2023-02-27T02:25:03.997Z,-0.97
2023-02-27T02:25:57.768Z,-0.98
2023-02-27T02:26:57.463Z,-1.01
2023-02-27T02:27:55.350Z,-1.04
2023-02-27T02:29:04.418Z,-1.00
2023-02-27T02:30:11.067Z,-1.00
2023-02-27T02:31:30.878Z,-1.00
2023-02-27T02:32:12.666Z,-1.02
2023-02-27T02:33:22.742Z,-1.05
2023-02-27T02:34:07.765Z,-1.01
2023-02-27T02:34:49.405Z,-1.01
2023-02-27T02:35:49.440Z,-1.02
2023-02-27T02:37:08.478Z,-1.05
2023-02-27T02:38:22.106Z,-1.25
2023-02-27T02:39:22.433Z,-1.08
2023-02-27T02:40:27.008Z,-1.08
2023-02-27T02:41:20.156Z,-1.11
2023-02-27T02:42:10.450Z,-1.09
2023-02-27T02:42:58.506Z,-1.11
2023-02-27T02:43:57.439Z,-1.12
2023-02-27T02:44:55.109Z,-1.15
2023-02-27T02:46:00.927Z,-1.15
2023-02-27T02:46:52.099Z,-1.15
2023-02-27T02:47:37.492Z,-1.17
2023-02-27T02:48:28.084Z,-1.17
2023-02-27T02:49:19.394Z,-1.37
2023-02-27T02:50:13.873Z,-1.31
2023-02-27T02:51:13.665Z,-1.19
2023-02-27T02:52:08.877Z,-1.18
2023-02-27T02:53:36.175Z,-1.15
2023-02-27T02:54:33.669Z,-1.19
2023-02-27T02:55:42.483Z,-1.06
2023-02-27T02:56:31.740Z,-1.19
2023-02-27T02:57:27.068Z,-1.03
2023-02-27T02:58:16.699Z,-1.50
2023-02-27T02:59:08.487Z,-1.40
2023-02-27T03:00:02.202Z,-1.14
2023-02-27T03:00:50.943Z,-1.21
2023-02-27T03:01:39.413Z,-1.19
2023-02-27T03:02:35.728Z,-1.24
2023-02-27T03:03:31.453Z,-1.17
2023-02-27T03:04:35.004Z,-1.17
2023-02-27T03:05:24.564Z,-1.26
2023-02-27T03:06:13.906Z,-1.17
2023-02-27T03:07:16.902Z,-1.19
2023-02-27T03:08:06.262Z,-1.27
2023-02-27T03:08:59.074Z,-1.24
2023-02-27T03:09:54.574Z,-1.24
2023-02-27T03:10:46.639Z,-1.21
2023-02-27T03:11:34.222Z,-1.51
2023-02-27T03:12:21.373Z,-1.21
2023-02-27T03:13:08.821Z,-1.32
2023-02-27T03:14:30.814Z,-1.22
2023-02-27T03:15:18.886Z,-1.30
2023-02-27T03:16:17.956Z,-1.24
2023-02-27T03:17:05.565Z,-1.27
2023-02-27T03:18:04.454Z,-1.40
2023-02-27T03:19:08.061Z,-1.26
2023-02-27T03:19:52.513Z,-1.27
2023-02-27T03:20:45.389Z,-1.28
2023-02-27T03:21:49.639Z,-1.29
2023-02-27T03:22:37.643Z,-1.28
2023-02-27T03:23:25.193Z,-1.27
2023-02-27T03:24:12.819Z,-1.25
2023-02-27T03:24:59.042Z,-1.27
2023-02-27T03:25:46.078Z,-1.33
2023-02-27T03:26:34.919Z,-1.36
2023-02-27T03:27:18.951Z,-1.34
2023-02-27T03:28:09.722Z,-1.27
2023-02-27T03:29:04.548Z,-1.75
2023-02-27T03:29:58.135Z,-1.27
2023-02-27T03:30:53.455Z,-1.27
2023-02-27T03:31:57.786Z,-1.28
2023-02-27T03:32:52.802Z,-1.28
2023-02-27T03:33:50.226Z,-1.28
2023-02-27T03:34:35.469Z,-1.28
2023-02-27T03:35:22.652Z,-1.45
2023-02-27T03:36:04.161Z,-1.30
2023-02-27T03:37:06.664Z,-1.33
2023-02-27T03:38:01.116Z,-1.37
2023-02-27T03:39:00.680Z,-1.27
2023-02-27T03:39:49.696Z,-1.27
2023-02-27T03:40:52.209Z,-1.30
2023-02-27T03:41:52.283Z,-1.55
2023-02-27T03:43:18.777Z,-1.30
2023-02-27T03:44:39.183Z,-1.29
2023-02-27T03:45:35.630Z,-1.48
2023-02-27T03:46:21.447Z,-1.30
2023-02-27T03:47:03.202Z,-1.31
2023-02-27T03:47:45.206Z,-1.31
2023-02-27T03:48:27.996Z,-1.39
2023-02-27T03:49:09.842Z,-1.33
2023-02-27T03:49:51.497Z,-1.67
2023-02-27T03:50:35.794Z,-1.51
2023-02-27T03:51:20.924Z,-1.36
2023-02-27T03:52:03.901Z,-1.38
2023-02-27T03:52:46.121Z,-1.39
2023-02-27T03:53:30.379Z,-1.34
2023-02-27T03:54:30.658Z,-1.54
2023-02-27T03:55:26.610Z,-1.35
2023-02-27T03:56:10.129Z,-1.43
2023-02-27T03:57:02.065Z,-1.46
2023-02-27T03:57:46.443Z,-1.45
2023-02-27T03:58:28.273Z,-1.32
2023-02-27T03:59:10.760Z,-1.39
2023-02-27T03:59:57.774Z,-1.37
2023-02-27T04:00:39.448Z,-1.73
2023-02-27T04:01:21.783Z,-1.35
2023-02-27T04:02:04.603Z,-1.40
2023-02-27T04:02:52.722Z,-1.51
2023-02-27T04:03:46.209Z,-1.41
2023-02-27T04:04:33.008Z,-1.37
2023-02-27T04:05:28.509Z,-1.36
2023-02-27T04:06:37.771Z,-1.38
2023-02-27T04:07:43.172Z,-1.37
2023-02-27T04:08:56.320Z,-1.36
2023-02-27T04:10:05.600Z,-1.50
2023-02-27T04:10:59.053Z,-1.37
2023-02-27T04:12:03.066Z,-1.42
2023-02-27T04:13:09.254Z,-1.37
2023-02-27T04:14:06.779Z,-1.38
2023-02-27T04:15:18.743Z,-1.38
2023-02-27T04:16:38.265Z,-1.53
2023-02-27T04:17:29.592Z,-1.38
2023-02-27T04:18:19.834Z,-1.38
2023-02-27T04:19:31.656Z,-1.45
2023-02-27T04:20:20.856Z,-1.45
2023-02-27T04:21:19.037Z,-1.43
2023-02-27T04:22:19.965Z,-1.85
2023-02-27T04:23:10.524Z,-1.93
2023-02-27T04:24:03.417Z,-1.39
2023-02-27T04:25:13.388Z,-1.62
2023-02-27T04:26:13.694Z,-1.40
2023-02-27T04:27:20.282Z,-1.42
2023-02-27T04:28:28.075Z,-1.76
2023-02-27T04:29:23.293Z,-1.45
2023-02-27T04:30:08.089Z,-1.46
2023-02-27T04:31:02.742Z,-1.88
2023-02-27T04:31:57.082Z,-1.47
2023-02-27T04:33:00.690Z,-1.77
2023-02-27T04:33:52.030Z,-1.66
2023-02-27T04:34:42.276Z,-1.49
2023-02-27T04:35:32.193Z,-1.49
2023-02-27T04:36:18.430Z,-1.55
2023-02-27T04:37:08.837Z,-1.47
2023-02-27T04:37:59.614Z,-1.80
2023-02-27T04:38:49.395Z,-1.34
2023-02-27T04:39:38.518Z,-1.29
2023-02-27T04:40:27.451Z,-1.24
2023-02-27T04:41:14.730Z,-1.23
2023-02-27T04:42:06.955Z,-1.42
2023-02-27T04:42:54.898Z,-1.24
2023-02-27T04:43:39.162Z,-1.32
2023-02-27T04:44:23.325Z,-1.36
2023-02-27T04:45:11.345Z,-1.25
2023-02-27T04:45:57.336Z,-1.34
2023-02-27T04:46:42.830Z,-1.42
2023-02-27T04:47:27.193Z,-1.39
2023-02-27T04:48:17.955Z,-1.36
2023-02-27T04:49:05.464Z,-1.17
2023-02-27T04:49:56.818Z,-1.12
2023-02-27T04:50:45.215Z,-1.12
2023-02-27T04:51:46.946Z,-1.10
2023-02-27T04:52:37.972Z,-1.12
2023-02-27T04:53:28.250Z,-1.12
2023-02-27T04:54:16.887Z,-1.31
2023-02-27T04:55:13.527Z,-1.17
2023-02-27T04:56:03.415Z,-1.27
2023-02-27T04:56:51.429Z,-1.30
2023-02-27T04:57:41.222Z,-1.24
2023-02-27T04:58:36.144Z,-1.61
2023-02-27T04:59:23.754Z,-1.24
2023-02-27T05:00:09.637Z,-1.27
2023-02-27T05:01:03.799Z,-1.31
2023-02-27T05:01:54.049Z,-1.30
2023-02-27T05:02:41.060Z,-1.34
2023-02-27T05:03:30.030Z,-1.39
2023-02-27T05:04:16.015Z,-1.65
2023-02-27T05:05:01.590Z,-1.62
2023-02-27T05:05:46.824Z,-1.65
2023-02-27T05:06:33.945Z,-1.49
2023-02-27T05:07:19.632Z,-1.50
2023-02-27T05:08:10.804Z,-1.50
2023-02-27T05:09:11.965Z,-1.52
2023-02-27T05:10:01.703Z,-1.63
2023-02-27T05:10:52.146Z,-1.59
2023-02-27T05:11:40.878Z,-2.05
2023-02-27T05:12:32.544Z,-1.49
2023-02-27T05:13:26.650Z,-1.65
2023-02-27T05:14:28.289Z,-1.52
2023-02-27T05:15:28.530Z,-1.51
2023-02-27T05:16:33.234Z,-1.50
2023-02-27T05:17:22.558Z,-1.52
2023-02-27T05:18:08.059Z,-1.54
2023-02-27T05:18:50.085Z,-1.69
2023-02-27T05:19:33.653Z,-2.06
2023-02-27T05:20:17.188Z,-1.50
2023-02-27T05:21:29.370Z,-1.50
2023-02-27T05:22:22.395Z,-1.64
2023-02-27T05:23:29.650Z,-1.59
2023-02-27T05:24:36.446Z,-1.57
2023-02-27T05:25:33.890Z,-1.58
2023-02-27T05:26:23.677Z,-1.58
2023-02-27T05:27:13.388Z,-1.58
2023-02-27T05:28:07.287Z,-1.58
2023-02-27T05:29:07.574Z,-1.58
2023-02-27T05:29:51.540Z,-1.59
2023-02-27T05:30:38.420Z,-1.59
2023-02-27T05:31:37.184Z,-1.67
2023-02-27T05:32:43.442Z,-1.60
2023-02-27T05:33:30.840Z,-1.75
2023-02-27T05:34:23.877Z,-1.66
2023-02-27T05:35:30.352Z,-1.53
2023-02-27T05:36:18.468Z,-2.03
2023-02-27T05:37:04.339Z,-1.51
2023-02-27T05:38:14.564Z,-1.49
2023-02-27T05:39:00.001Z,-1.56
2023-02-27T05:39:43.368Z,-1.55
2023-02-27T05:40:32.404Z,-2.40
2023-02-27T05:41:18.390Z,-2.38
2023-02-27T05:42:11.560Z,-1.65
2023-02-27T05:43:02.108Z,-1.64
2023-02-27T05:44:01.187Z,-1.50
2023-02-27T05:44:51.253Z,-1.93
2023-02-27T05:45:36.291Z,-1.64
2023-02-27T05:46:23.780Z,-1.47
2023-02-27T05:47:10.618Z,-1.48
2023-02-27T05:48:03.506Z,-1.48
2023-02-27T05:48:57.072Z,-1.51
2023-02-27T05:49:48.266Z,-1.48
2023-02-27T05:50:32.588Z,-1.49
2023-02-27T05:51:16.930Z,-1.47
2023-02-27T05:52:02.811Z,-1.51
2023-02-27T05:52:45.890Z,-1.46
2023-02-27T05:53:33.259Z,-1.45
2023-02-27T05:54:38.881Z,-1.45
2023-02-27T05:55:27.118Z,-1.44
2023-02-27T05:56:11.711Z,-1.46
2023-02-27T05:56:57.204Z,-1.47
2023-02-27T05:57:44.970Z,-1.47
2023-02-27T05:58:32.542Z,-1.50
2023-02-27T05:59:28.096Z,-1.47
2023-02-27T06:00:21.557Z,-1.48
2023-02-27T06:01:06.760Z,-1.48
2023-02-27T06:01:48.469Z,-1.52
2023-02-27T06:02:30.355Z,-1.67
2023-02-27T06:03:13.100Z,-1.63
2023-02-27T06:03:55.488Z,-1.51
2023-02-27T06:04:37.333Z,-1.69
2023-02-27T06:05:19.696Z,-1.58
2023-02-27T06:06:05.199Z,-1.63
2023-02-27T06:06:47.954Z,-1.67
2023-02-27T06:07:34.353Z,-1.50
2023-02-27T06:08:16.000Z,-1.59
2023-02-27T06:08:57.689Z,-2.54
2023-02-27T06:09:39.471Z,-1.68
2023-02-27T06:10:21.824Z,-1.51
2023-02-27T06:11:03.600Z,-1.51
2023-02-27T06:11:45.177Z,-1.62
2023-02-27T06:12:26.788Z,-1.53
2023-02-27T06:13:08.385Z,-1.53
2023-02-27T06:13:49.998Z,-1.55
2023-02-27T06:14:31.617Z,-1.72
2023-02-27T06:15:13.684Z,-1.72
2023-02-27T06:15:55.305Z,-1.55
2023-02-27T06:16:38.994Z,-1.56
2023-02-27T06:17:20.636Z,-1.53
2023-02-27T06:18:02.371Z,-1.55
2023-02-27T06:18:43.963Z,-1.58
2023-02-27T06:19:25.841Z,-2.13
2023-02-27T06:20:08.347Z,-2.10
2023-02-27T06:20:50.202Z,-1.61
2023-02-27T06:21:32.525Z,-1.59
2023-02-27T06:22:14.293Z,-1.58
2023-02-27T06:22:55.925Z,-1.56
2023-02-27T06:23:37.547Z,-1.56
2023-02-27T06:24:21.198Z,-1.61
2023-02-27T06:25:04.128Z,-1.56
2023-02-27T06:25:45.761Z,-1.57
2023-02-27T06:26:28.699Z,-1.98
2023-02-27T06:27:10.437Z,-1.71
2023-02-27T06:27:52.337Z,-1.64
2023-02-27T06:28:34.001Z,-1.59
2023-02-27T06:29:15.656Z,-1.59
2023-02-27T06:29:57.670Z,-1.85
2023-02-27T06:30:39.403Z,-1.65
2023-02-27T06:31:21.106Z,-1.61
2023-02-27T06:32:02.720Z,-1.62
2023-02-27T06:32:44.351Z,-1.62
2023-02-27T06:33:25.993Z,-1.64
2023-02-27T06:34:07.640Z,-1.84
2023-02-27T06:34:49.205Z,-1.63
2023-02-27T06:35:31.165Z,-1.60
2023-02-27T06:36:12.776Z,-1.58
2023-02-27T06:36:54.396Z,-1.59
2023-02-27T06:37:36.059Z,-1.61
2023-02-27T06:38:17.796Z,-1.90
2023-02-27T06:38:59.645Z,-1.64
2023-02-27T06:39:41.388Z,-1.68
2023-02-27T06:40:22.951Z,-1.56
2023-02-27T06:41:04.791Z,-1.52
2023-02-27T06:41:46.472Z,-1.50
2023-02-27T06:42:28.423Z,-1.47
2023-02-27T06:43:10.146Z,-1.46
2023-02-27T06:43:52.039Z,-1.61
2023-02-27T06:44:33.694Z,-1.52
2023-02-27T06:45:16.671Z,-1.44
2023-02-27T06:45:58.307Z,-1.66
2023-02-27T06:46:39.892Z,-1.44
2023-02-27T06:47:21.541Z,-1.43
2023-02-27T06:48:03.271Z,-1.43
2023-02-27T06:48:45.575Z,-1.41
2023-02-27T06:49:27.181Z,-1.49
2023-02-27T06:50:11.242Z,-1.38
2023-02-27T06:50:54.029Z,-1.38
2023-02-27T06:51:35.866Z,-1.39
2023-02-27T06:52:17.539Z,-1.40
2023-02-27T06:52:59.110Z,-1.43
2023-02-27T06:53:41.670Z,-1.43
2023-02-27T06:54:23.389Z,-1.43
2023-02-27T06:55:07.112Z,-1.85
2023-02-27T06:55:49.425Z,-1.44
2023-02-27T06:56:31.072Z,-1.42
2023-02-27T06:57:12.715Z,-1.55
2023-02-27T06:57:54.344Z,-1.43
2023-02-27T06:58:35.933Z,-1.42
2023-02-27T06:59:18.157Z,-1.51
2023-02-27T06:59:59.816Z,-1.65
2023-02-27T07:00:41.744Z,-1.39
2023-02-27T07:01:24.795Z,-1.38
2023-02-27T07:02:06.534Z,-1.67
2023-02-27T07:02:48.300Z,-1.40
2023-02-27T07:03:29.968Z,-1.43
2023-02-27T07:04:15.265Z,-1.39
2023-02-27T07:04:57.559Z,-1.48
2023-02-27T07:05:41.342Z,-1.71
2023-02-27T07:07:31.110Z,-1.36
2023-02-27T07:07:34.108Z,-1.56
2023-02-27T07:08:18.913Z,-1.33
2023-02-27T07:09:06.688Z,-1.34
2023-02-27T07:09:48.982Z,-1.87
2023-02-27T07:10:30.905Z,-1.37
2023-02-27T07:11:12.566Z,-1.42
2023-02-27T07:11:54.293Z,-1.44
2023-02-27T07:12:36.046Z,-1.55
2023-02-27T07:13:19.527Z,-1.34
2023-02-27T07:14:01.442Z,-1.31
2023-02-27T07:14:43.071Z,-1.32
2023-02-27T07:15:24.915Z,-1.30
2023-02-27T07:16:06.943Z,-1.40
2023-02-27T07:16:54.728Z,-1.30
2023-02-27T07:17:36.472Z,-1.70
2023-02-27T07:18:18.216Z,-1.45
2023-02-27T07:18:59.827Z,-1.28
2023-02-27T07:19:41.490Z,-1.21
2023-02-27T07:20:23.627Z,-1.29
2023-02-27T07:21:05.472Z,-1.29
2023-02-27T07:21:47.161Z,-1.23
2023-02-27T07:22:31.830Z,-1.22
2023-02-27T07:23:13.463Z,-1.22
2023-02-27T07:23:55.241Z,-1.31
2023-02-27T07:24:36.984Z,-1.18
2023-02-27T07:25:18.828Z,-1.15
2023-02-27T07:26:00.557Z,-1.25
2023-02-27T07:26:42.554Z,-1.14
2023-02-27T07:27:24.225Z,-1.14
2023-02-27T07:28:06.061Z,-1.14
2023-02-27T07:28:47.697Z,-1.26
2023-02-27T07:29:29.367Z,-1.05
2023-02-27T07:30:11.844Z,-1.04
2023-02-27T07:30:55.652Z,-1.06
2023-02-27T07:31:37.396Z,-1.09
2023-02-27T07:32:19.112Z,-1.20
2023-02-27T07:33:00.786Z,-1.06
2023-02-27T07:33:42.395Z,-1.05
2023-02-27T07:34:24.019Z,-1.02
2023-02-27T07:35:06.477Z,-1.01
2023-02-27T07:35:48.902Z,-0.98
2023-02-27T07:36:31.514Z,-1.32
2023-02-27T07:37:13.145Z,-0.97
2023-02-27T07:37:54.753Z,-0.74
2023-02-27T07:38:36.450Z,-1.08
2023-02-27T07:39:18.086Z,-0.64
2023-02-27T07:39:59.732Z,-0.66
2023-02-27T07:40:42.036Z,-0.49
2023-02-27T07:41:30.435Z,-0.69
2023-02-27T07:42:15.010Z,-0.27
2023-02-27T07:42:56.583Z,-0.55
2023-02-27T07:43:38.221Z,-0.09
2023-02-27T07:44:19.829Z,-0.10
2023-02-27T07:45:01.618Z,0.13
2023-02-27T07:45:43.291Z,-0.04
2023-02-27T07:46:27.474Z,0.08
2023-02-27T07:47:09.420Z,0.11
2023-02-27T07:47:51.053Z,0.24
2023-02-27T07:48:33.757Z,0.24
2023-02-27T07:49:15.337Z,0.37
2023-02-27T07:49:57.060Z,0.51
2023-02-27T07:50:38.721Z,0.18
2023-02-27T07:51:20.685Z,0.57
2023-02-27T07:52:02.624Z,0.46
2023-02-27T07:52:44.564Z,0.62
2023-02-27T07:53:26.595Z,0.67
2023-02-27T07:54:08.276Z,0.71
2023-02-27T07:54:49.929Z,0.70
2023-02-27T07:55:31.567Z,0.75
2023-02-27T07:56:13.949Z,0.54
2023-02-27T07:56:55.566Z,0.89
2023-02-27T07:57:37.789Z,0.81
2023-02-27T07:58:19.363Z,1.03
2023-02-27T07:59:01.025Z,1.07
2023-02-27T07:59:42.584Z,1.15
2023-02-27T08:00:25.942Z,1.27
2023-02-27T08:01:07.899Z,1.24
2023-02-27T08:01:49.578Z,1.23
2023-02-27T08:02:31.311Z,1.24
2023-02-27T08:03:13.558Z,1.29
2023-02-27T08:03:56.513Z,1.34
2023-02-27T08:04:38.222Z,1.34
2023-02-27T08:05:19.889Z,1.24
2023-02-27T08:06:02.434Z,1.35
2023-02-27T08:06:44.661Z,1.58
2023-02-27T08:07:26.333Z,1.50
2023-02-27T08:08:07.952Z,1.82
2023-02-27T08:08:50.226Z,1.87
2023-02-27T08:09:31.925Z,1.98
2023-02-27T08:10:16.167Z,2.04
2023-02-27T08:10:58.536Z,2.18
2023-02-27T08:11:40.219Z,2.26
2023-02-27T08:12:22.312Z,2.11
2023-02-27T08:13:03.988Z,2.25
2023-02-27T08:14:02.759Z,2.41
2023-02-27T08:14:44.797Z,2.46
2023-02-27T08:15:26.508Z,2.34
2023-02-27T08:16:11.153Z,2.41
2023-02-27T08:16:52.786Z,2.47
2023-02-27T08:17:34.550Z,2.71
2023-02-27T08:18:16.279Z,2.30
2023-02-27T08:18:58.084Z,2.61
2023-02-27T08:19:39.841Z,2.57
2023-02-27T08:20:22.695Z,2.50
2023-02-27T08:21:07.338Z,2.46
2023-02-27T08:21:48.984Z,2.57
2023-02-27T08:22:30.979Z,2.68
2023-02-27T08:23:12.666Z,2.81
2023-02-27T08:23:54.505Z,3.06
2023-02-27T08:24:36.151Z,3.15
2023-02-27T08:25:17.902Z,3.10
2023-02-27T08:25:59.505Z,3.23
2023-02-27T08:26:41.188Z,3.32
2023-02-27T08:27:22.879Z,3.30
2023-02-27T08:28:04.658Z,3.46
2023-02-27T08:28:46.398Z,3.54
2023-02-27T08:29:28.566Z,3.64
2023-02-27T08:30:12.188Z,3.50
2023-02-27T08:30:54.922Z,3.47
2023-02-27T08:31:36.650Z,3.30
2023-02-27T08:32:18.400Z,3.27
2023-02-27T08:33:00.147Z,3.51
2023-02-27T08:33:41.790Z,3.57
2023-02-27T08:34:23.471Z,3.72
2023-02-27T08:35:05.890Z,3.85
2023-02-27T08:35:47.706Z,3.92
2023-02-27T08:36:29.710Z,3.67
2023-02-27T08:37:11.505Z,3.73
2023-02-27T08:37:53.152Z,3.80
2023-02-27T08:38:34.805Z,3.72
2023-02-27T08:39:17.767Z,3.78
2023-02-27T08:39:59.429Z,3.93
2023-02-27T08:40:41.122Z,3.94
2023-02-27T08:41:22.780Z,4.12
2023-02-27T08:42:04.584Z,4.02
2023-02-27T08:42:46.187Z,4.13
2023-02-27T08:43:27.874Z,4.12
2023-02-27T08:44:11.945Z,4.13
2023-02-27T08:44:53.597Z,4.26
2023-02-27T08:45:35.301Z,4.17
2023-02-27T08:46:17.024Z,4.23
2023-02-27T08:46:58.913Z,4.34
2023-02-27T08:47:40.545Z,4.48
2023-02-27T08:48:24.288Z,4.55
2023-02-27T08:49:05.972Z,4.43
2023-02-27T08:49:47.626Z,4.46
2023-02-27T08:50:29.302Z,4.36
2023-02-27T08:51:11.016Z,4.49
2023-02-27T08:51:53.462Z,4.42
2023-02-27T08:52:35.102Z,4.31
2023-02-27T08:53:16.834Z,4.42
2023-02-27T08:53:59.010Z,4.52
2023-02-27T08:54:40.824Z,4.55
2023-02-27T08:55:22.611Z,4.53
2023-02-27T08:56:04.271Z,4.54
2023-02-27T08:56:47.102Z,4.66
2023-02-27T08:57:31.559Z,4.42
2023-02-27T08:58:13.181Z,4.38
2023-02-27T08:58:56.223Z,4.32
2023-02-27T08:59:37.855Z,4.49
2023-02-27T09:00:20.109Z,4.14
2023-02-27T09:01:02.924Z,4.56
2023-02-27T09:01:44.821Z,4.75
2023-02-27T09:02:26.820Z,4.72
2023-02-27T09:03:08.674Z,4.68
2023-02-27T09:03:50.418Z,4.44
2023-02-27T09:04:32.148Z,4.36
2023-02-27T09:05:13.890Z,4.90
2023-02-27T09:05:56.451Z,4.97
2023-02-27T09:06:38.651Z,5.02
2023-02-27T09:07:20.789Z,5.20
2023-02-27T09:08:03.309Z,5.28
2023-02-27T09:08:44.999Z,5.38
2023-02-27T09:09:27.600Z,5.47
2023-02-27T09:10:10.162Z,5.18
2023-02-27T09:10:55.228Z,5.27
2023-02-27T09:11:38.694Z,5.30
2023-02-27T09:12:20.617Z,5.28
2023-02-27T09:13:02.260Z,5.48
2023-02-27T09:13:43.878Z,5.47
2023-02-27T09:14:25.759Z,5.55
2023-02-27T09:15:08.089Z,5.69
2023-02-27T09:15:49.855Z,5.62
2023-02-27T09:16:31.791Z,5.59
2023-02-27T09:17:13.629Z,5.58
2023-02-27T09:18:02.865Z,5.26
2023-02-27T09:18:44.567Z,4.86
2023-02-27T09:19:26.306Z,4.48
2023-02-27T09:20:09.524Z,4.80
2023-02-27T09:20:52.080Z,4.88
2023-02-27T09:21:33.755Z,4.93
2023-02-27T09:22:15.379Z,5.07
2023-02-27T09:22:58.604Z,5.15
2023-02-27T09:23:40.595Z,5.09
2023-02-27T09:24:22.435Z,4.92
2023-02-27T09:25:04.756Z,4.73
2023-02-27T09:25:47.366Z,4.39
2023-02-27T09:26:41.991Z,4.36
2023-02-27T09:27:26.785Z,4.27
2023-02-27T09:28:08.393Z,4.28
2023-02-27T09:28:50.159Z,4.39
2023-02-27T09:29:31.973Z,4.33
2023-02-27T09:30:13.715Z,4.54
2023-02-27T09:30:55.486Z,4.78
2023-02-27T09:31:37.297Z,4.50
2023-02-27T09:32:19.062Z,4.89
2023-02-27T09:33:00.804Z,5.13
2023-02-27T09:33:42.500Z,5.21
2023-02-27T09:34:24.190Z,5.33
2023-02-27T09:35:06.346Z,5.38
2023-02-27T09:35:47.982Z,4.96
2023-02-27T09:36:30.008Z,5.29
2023-02-27T09:37:11.814Z,5.25
2023-02-27T09:37:53.634Z,4.98
2023-02-27T09:38:36.760Z,5.21
2023-02-27T09:39:18.532Z,5.19
2023-02-27T09:40:00.120Z,5.30
2023-02-27T09:40:51.156Z,5.34
2023-02-27T09:41:46.240Z,5.20
2023-02-27T09:42:45.411Z,5.44
2023-02-27T09:43:47.741Z,5.52
2023-02-27T09:44:45.234Z,5.65
2023-02-27T09:45:30.437Z,5.63
2023-02-27T09:46:19.080Z,5.22
2023-02-27T09:47:02.473Z,5.38
2023-02-27T09:47:50.775Z,5.39
2023-02-27T09:48:39.006Z,4.99
2023-02-27T09:49:24.491Z,5.37
2023-02-27T09:50:06.442Z,5.58
2023-02-27T09:50:50.211Z,5.75
2023-02-27T09:51:32.039Z,5.38
2023-02-27T09:52:15.080Z,5.84
2023-02-27T09:52:57.304Z,5.80
2023-02-27T09:53:41.281Z,6.02
2023-02-27T09:54:25.624Z,6.13
2023-02-27T09:55:18.818Z,6.09
2023-02-27T09:56:19.765Z,5.84
2023-02-27T09:57:05.457Z,6.02
2023-02-27T09:57:59.026Z,5.52
2023-02-27T09:58:46.498Z,5.73
2023-02-27T09:59:45.795Z,5.67
2023-02-27T10:00:46.984Z,5.76
2023-02-27T10:01:34.440Z,5.67
2023-02-27T10:02:54.241Z,5.56